sensor_id;sensor_type;location;lat;lon;timestamp;pressure;altitude;pressure_sealevel;temperature;humidity
86330;BME280;76985;51.042;13.978;2024-03-08T00:02:14;99614.25;;;-0.55;80.17
86330;BME280;76985;51.042;13.978;2024-03-08T00:05:21;99589.81;;;-0.71;80.05
86330;BME280;76985;51.042;13.978;2024-03-08T00:07:47;99589.72;;;-0.70;80.07
86330;BME280;76985;51.042;13.978;2024-03-08T00:10:13;99585.41;;;-1.10;80.69
86330;BME280;76985;51.042;13.978;2024-03-08T00:12:40;99593.63;;;-1.35;81.75
86330;BME280;76985;51.042;13.978;2024-03-08T00:15:16;99619.38;;;-1.34;81.80
86330;BME280;76985;51.042;13.978;2024-03-08T00:17:44;99600.16;;;-1.41;81.81
86330;BME280;76985;51.042;13.978;2024-03-08T00:20:10;99595.97;;;-1.32;81.59
86330;BME280;76985;51.042;13.978;2024-03-08T00:22:37;99608.19;;;-1.34;81.46
86330;BME280;76985;51.042;13.978;2024-03-08T00:25:32;99610.78;;;-1.34;83.97
86330;BME280;76985;51.042;13.978;2024-03-08T00:27:59;99604.31;;;-1.50;83.43
86330;BME280;76985;51.042;13.978;2024-03-08T00:30:25;99556.72;;;-1.68;83.32
86330;BME280;76985;51.042;13.978;2024-03-08T00:32:51;99573.72;;;-1.44;83.60
86330;BME280;76985;51.042;13.978;2024-03-08T00:35:17;99593.31;;;-1.42;82.00
86330;BME280;76985;51.042;13.978;2024-03-08T00:37:43;99576.94;;;-1.52;82.35
86330;BME280;76985;51.042;13.978;2024-03-08T00:40:12;99611.88;;;-1.37;83.41
86330;BME280;76985;51.042;13.978;2024-03-08T00:42:39;99572.00;;;-1.65;83.27
86330;BME280;76985;51.042;13.978;2024-03-08T00:45:44;99565.50;;;-1.80;84.60
86330;BME280;76985;51.042;13.978;2024-03-08T00:48:10;99525.13;;;-2.02;83.51
86330;BME280;76985;51.042;13.978;2024-03-08T00:50:36;99574.09;;;-1.80;83.99
86330;BME280;76985;51.042;13.978;2024-03-08T00:53:03;99590.22;;;-1.66;84.42
86330;BME280;76985;51.042;13.978;2024-03-08T00:55:30;99554.75;;;-1.85;83.78
86330;BME280;76985;51.042;13.978;2024-03-08T00:57:56;99574.59;;;-1.55;82.30
86330;BME280;76985;51.042;13.978;2024-03-08T01:00:23;99561.78;;;-1.87;81.89
86330;BME280;76985;51.042;13.978;2024-03-08T01:05:42;99598.06;;;-1.78;83.71
86330;BME280;76985;51.042;13.978;2024-03-08T01:08:08;99566.69;;;-2.15;81.93
86330;BME280;76985;51.042;13.978;2024-03-08T01:10:37;99575.47;;;-2.38;83.62
86330;BME280;76985;51.042;13.978;2024-03-08T01:13:03;99546.22;;;-2.60;85.01
86330;BME280;76985;51.042;13.978;2024-03-08T01:15:29;99560.22;;;-2.41;85.70
86330;BME280;76985;51.042;13.978;2024-03-08T01:17:56;99562.81;;;-2.20;83.27
86330;BME280;76985;51.042;13.978;2024-03-08T01:20:22;99555.19;;;-2.22;84.27
86330;BME280;76985;51.042;13.978;2024-03-08T01:22:48;99540.69;;;-2.34;83.87
86330;BME280;76985;51.042;13.978;2024-03-08T01:25:55;99552.63;;;-2.22;83.51
86330;BME280;76985;51.042;13.978;2024-03-08T01:28:25;99565.09;;;-2.27;84.50
86330;BME280;76985;51.042;13.978;2024-03-08T01:30:51;99522.63;;;-2.34;84.26
86330;BME280;76985;51.042;13.978;2024-03-08T01:33:23;99565.47;;;-2.11;84.52
86330;BME280;76985;51.042;13.978;2024-03-08T01:35:49;99490.88;;;-2.78;83.56
86330;BME280;76985;51.042;13.978;2024-03-08T01:38:15;99530.88;;;-2.61;84.80
86330;BME280;76985;51.042;13.978;2024-03-08T01:40:41;99521.66;;;-2.54;85.95
86330;BME280;76985;51.042;13.978;2024-03-08T01:46:00;99521.53;;;-2.73;83.21
86330;BME280;76985;51.042;13.978;2024-03-08T01:48:30;99535.31;;;-2.63;85.46
86330;BME280;76985;51.042;13.978;2024-03-08T01:50:57;99513.91;;;-2.86;84.97
86330;BME280;76985;51.042;13.978;2024-03-08T01:53:27;99535.34;;;-2.75;84.00
86330;BME280;76985;51.042;13.978;2024-03-08T01:55:57;99503.41;;;-2.94;82.73
86330;BME280;76985;51.042;13.978;2024-03-08T01:58:24;99515.41;;;-3.05;83.88
86330;BME280;76985;51.042;13.978;2024-03-08T02:00:53;99500.66;;;-3.14;84.08
86330;BME280;76985;51.042;13.978;2024-03-08T02:05:56;99489.88;;;-3.19;86.99
86330;BME280;76985;51.042;13.978;2024-03-08T02:08:25;99501.00;;;-2.86;86.44
86330;BME280;76985;51.042;13.978;2024-03-08T02:10:51;99500.19;;;-2.87;85.50
86330;BME280;76985;51.042;13.978;2024-03-08T02:13:17;99483.38;;;-3.02;85.04
86330;BME280;76985;51.042;13.978;2024-03-08T02:16:11;99521.72;;;-2.97;83.65
86330;BME280;76985;51.042;13.978;2024-03-08T02:18:37;99506.53;;;-3.23;85.36
86330;BME280;76985;51.042;13.978;2024-03-08T02:21:06;99523.84;;;-3.03;85.35
86330;BME280;76985;51.042;13.978;2024-03-08T02:25:39;99516.03;;;-2.80;85.03
86330;BME280;76985;51.042;13.978;2024-03-08T02:28:05;99515.03;;;-2.68;85.14
86330;BME280;76985;51.042;13.978;2024-03-08T02:30:31;99471.66;;;-3.06;84.32
86330;BME280;76985;51.042;13.978;2024-03-08T02:32:58;99482.56;;;-3.03;85.75
86330;BME280;76985;51.042;13.978;2024-03-08T02:35:24;99506.69;;;-2.92;86.76
86330;BME280;76985;51.042;13.978;2024-03-08T02:37:50;99514.66;;;-2.95;86.21
86330;BME280;76985;51.042;13.978;2024-03-08T02:40:16;99500.41;;;-3.11;84.95
86330;BME280;76985;51.042;13.978;2024-03-08T02:42:42;99438.84;;;-3.59;84.65
86330;BME280;76985;51.042;13.978;2024-03-08T02:45:52;99513.25;;;-3.32;85.10
86330;BME280;76985;51.042;13.978;2024-03-08T02:48:19;99463.22;;;-3.63;84.11
86330;BME280;76985;51.042;13.978;2024-03-08T02:50:45;99509.13;;;-3.34;86.35
86330;BME280;76985;51.042;13.978;2024-03-08T02:53:12;99505.63;;;-3.44;86.13
86330;BME280;76985;51.042;13.978;2024-03-08T02:55:39;99454.59;;;-3.84;85.56
86330;BME280;76985;51.042;13.978;2024-03-08T02:58:07;99420.28;;;-4.07;85.58
86330;BME280;76985;51.042;13.978;2024-03-08T03:00:37;99465.84;;;-3.85;84.56
86330;BME280;76985;51.042;13.978;2024-03-08T03:05:51;99494.41;;;-3.88;84.96
86330;BME280;76985;51.042;13.978;2024-03-08T03:08:21;99502.38;;;-3.80;86.95
86330;BME280;76985;51.042;13.978;2024-03-08T03:10:47;99449.44;;;-3.95;88.75
86330;BME280;76985;51.042;13.978;2024-03-08T03:13:13;99488.06;;;-3.51;87.31
86330;BME280;76985;51.042;13.978;2024-03-08T03:15:42;99469.56;;;-3.78;85.24
86330;BME280;76985;51.042;13.978;2024-03-08T03:18:08;99477.16;;;-3.65;86.67
86330;BME280;76985;51.042;13.978;2024-03-08T03:20:34;99482.53;;;-3.46;86.63
86330;BME280;76985;51.042;13.978;2024-03-08T03:23:06;99466.16;;;-3.56;86.80
86330;BME280;76985;51.042;13.978;2024-03-08T03:26:19;99473.09;;;-3.68;86.97
86330;BME280;76985;51.042;13.978;2024-03-08T03:28:47;99489.59;;;-3.70;82.45
86330;BME280;76985;51.042;13.978;2024-03-08T03:31:14;99456.22;;;-3.94;86.76
86330;BME280;76985;51.042;13.978;2024-03-08T03:33:40;99478.00;;;-3.87;87.89
86330;BME280;76985;51.042;13.978;2024-03-08T03:36:06;99451.31;;;-3.97;88.45
86330;BME280;76985;51.042;13.978;2024-03-08T03:38:35;99484.22;;;-3.67;88.02
86330;BME280;76985;51.042;13.978;2024-03-08T03:41:01;99443.34;;;-3.83;87.18
86330;BME280;76985;51.042;13.978;2024-03-08T03:46:17;99435.84;;;-3.75;86.84
86330;BME280;76985;51.042;13.978;2024-03-08T03:48:43;99489.00;;;-3.74;83.48
86330;BME280;76985;51.042;13.978;2024-03-08T03:51:09;99487.25;;;-3.73;86.13
86330;BME280;76985;51.042;13.978;2024-03-08T03:53:35;99469.38;;;-3.97;86.43
86330;BME280;76985;51.042;13.978;2024-03-08T03:56:01;99479.91;;;-3.89;88.21
86330;BME280;76985;51.042;13.978;2024-03-08T03:58:27;99458.78;;;-3.94;88.62
86330;BME280;76985;51.042;13.978;2024-03-08T04:00:53;99449.91;;;-3.79;88.62
86330;BME280;76985;51.042;13.978;2024-03-08T04:03:20;99480.47;;;-3.75;87.10
86330;BME280;76985;51.042;13.978;2024-03-08T04:06:32;99448.50;;;-4.17;85.52
86330;BME280;76985;51.042;13.978;2024-03-08T04:08:58;99466.06;;;-4.11;87.52
86330;BME280;76985;51.042;13.978;2024-03-08T04:11:24;99424.59;;;-3.96;87.78
86330;BME280;76985;51.042;13.978;2024-03-08T04:13:50;99460.53;;;-3.61;86.51
86330;BME280;76985;51.042;13.978;2024-03-08T04:16:16;99455.75;;;-3.77;86.22
86330;BME280;76985;51.042;13.978;2024-03-08T04:18:42;99445.69;;;-3.80;86.59
86330;BME280;76985;51.042;13.978;2024-03-08T04:21:09;99460.66;;;-3.74;87.12
86330;BME280;76985;51.042;13.978;2024-03-08T04:23:35;99449.22;;;-3.92;87.42
86330;BME280;76985;51.042;13.978;2024-03-08T04:26:46;99397.44;;;-4.45;85.79
86330;BME280;76985;51.042;13.978;2024-03-08T04:29:12;99460.91;;;-4.11;87.76
86330;BME280;76985;51.042;13.978;2024-03-08T04:31:40;99471.69;;;-4.17;86.38
86330;BME280;76985;51.042;13.978;2024-03-08T04:34:06;99477.28;;;-4.23;86.95
86330;BME280;76985;51.042;13.978;2024-03-08T04:36:32;99463.25;;;-4.30;88.36
86330;BME280;76985;51.042;13.978;2024-03-08T04:39:00;99451.97;;;-4.40;86.69
86330;BME280;76985;51.042;13.978;2024-03-08T04:41:26;99454.94;;;-4.34;88.95
86330;BME280;76985;51.042;13.978;2024-03-08T04:43:52;99454.00;;;-4.21;89.47
86330;BME280;76985;51.042;13.978;2024-03-08T04:46:57;99442.06;;;-4.11;88.88
86330;BME280;76985;51.042;13.978;2024-03-08T04:49:23;99429.53;;;-4.05;88.26
86330;BME280;76985;51.042;13.978;2024-03-08T04:51:49;99432.81;;;-4.03;87.49
86330;BME280;76985;51.042;13.978;2024-03-08T04:54:16;99427.19;;;-4.08;87.83
86330;BME280;76985;51.042;13.978;2024-03-08T04:56:42;99444.75;;;-4.13;87.61
86330;BME280;76985;51.042;13.978;2024-03-08T04:59:08;99442.41;;;-4.27;86.41
86330;BME280;76985;51.042;13.978;2024-03-08T05:01:34;99443.41;;;-4.52;85.12
86330;BME280;76985;51.042;13.978;2024-03-08T05:04:04;99439.78;;;-4.61;86.21
86330;BME280;76985;51.042;13.978;2024-03-08T05:07:12;99428.31;;;-4.57;87.93
86330;BME280;76985;51.042;13.978;2024-03-08T05:09:38;99434.41;;;-4.58;87.29
86330;BME280;76985;51.042;13.978;2024-03-08T05:12:06;99424.09;;;-4.58;89.28
86330;BME280;76985;51.042;13.978;2024-03-08T05:14:33;99417.59;;;-4.39;89.04
86330;BME280;76985;51.042;13.978;2024-03-08T05:17:00;99437.34;;;-4.40;88.27
86330;BME280;76985;51.042;13.978;2024-03-08T05:19:26;99417.22;;;-4.68;86.03
86330;BME280;76985;51.042;13.978;2024-03-08T05:21:52;99430.75;;;-4.66;87.28
86330;BME280;76985;51.042;13.978;2024-03-08T05:24:18;99443.50;;;-4.65;86.60
86330;BME280;76985;51.042;13.978;2024-03-08T05:27:29;99418.78;;;-4.90;87.11
86330;BME280;76985;51.042;13.978;2024-03-08T05:29:55;99421.13;;;-4.87;86.69
86330;BME280;76985;51.042;13.978;2024-03-08T05:32:21;99414.34;;;-4.88;88.27
86330;BME280;76985;51.042;13.978;2024-03-08T05:34:47;99445.78;;;-4.60;89.12
86330;BME280;76985;51.042;13.978;2024-03-08T05:37:13;99424.69;;;-4.77;88.19
86330;BME280;76985;51.042;13.978;2024-03-08T05:39:39;99428.53;;;-4.71;89.45
86330;BME280;76985;51.042;13.978;2024-03-08T05:42:06;99427.84;;;-4.62;89.94
86330;BME280;76985;51.042;13.978;2024-03-08T05:44:34;99441.91;;;-4.55;87.41
86330;BME280;76985;51.042;13.978;2024-03-08T05:47:44;99430.75;;;-4.66;88.69
86330;BME280;76985;51.042;13.978;2024-03-08T05:50:10;99414.41;;;-4.54;89.96
86330;BME280;76985;51.042;13.978;2024-03-08T05:52:37;99448.97;;;-4.12;89.54
86330;BME280;76985;51.042;13.978;2024-03-08T05:55:04;99422.72;;;-4.28;89.14
86330;BME280;76985;51.042;13.978;2024-03-08T05:57:33;99420.41;;;-4.31;89.93
86330;BME280;76985;51.042;13.978;2024-03-08T06:00:04;99399.78;;;-4.54;86.49
86330;BME280;76985;51.042;13.978;2024-03-08T06:02:30;99432.91;;;-4.38;88.25
86330;BME280;76985;51.042;13.978;2024-03-08T06:04:56;99419.31;;;-4.40;88.72
86330;BME280;76985;51.042;13.978;2024-03-08T06:07:59;99411.72;;;-4.19;91.02
86330;BME280;76985;51.042;13.978;2024-03-08T06:10:25;99438.66;;;-4.01;89.43
86330;BME280;76985;51.042;13.978;2024-03-08T06:12:51;99375.44;;;-4.50;88.39
86330;BME280;76985;51.042;13.978;2024-03-08T06:15:18;99432.69;;;-4.12;88.63
86330;BME280;76985;51.042;13.978;2024-03-08T06:17:46;99437.50;;;-3.96;88.62
86330;BME280;76985;51.042;13.978;2024-03-08T06:20:13;99452.84;;;-3.84;88.93
86330;BME280;76985;51.042;13.978;2024-03-08T06:22:39;99449.31;;;-3.83;87.76
86330;BME280;76985;51.042;13.978;2024-03-08T06:25:10;99448.72;;;-3.75;88.32
86330;BME280;76985;51.042;13.978;2024-03-08T06:27:57;99425.28;;;-3.83;87.60
86330;BME280;76985;51.042;13.978;2024-03-08T06:30:23;99413.56;;;-3.76;88.32
86330;BME280;76985;51.042;13.978;2024-03-08T06:32:49;99418.38;;;-3.71;88.80
86330;BME280;76985;51.042;13.978;2024-03-08T06:35:15;99424.19;;;-3.58;88.48
86330;BME280;76985;51.042;13.978;2024-03-08T06:37:41;99434.19;;;-3.33;88.44
86330;BME280;76985;51.042;13.978;2024-03-08T06:40:10;99438.38;;;-3.20;88.65
86330;BME280;76985;51.042;13.978;2024-03-08T06:42:40;99410.13;;;-3.22;88.81
86330;BME280;76985;51.042;13.978;2024-03-08T06:45:07;99433.16;;;-2.98;89.22
86330;BME280;76985;51.042;13.978;2024-03-08T06:47:56;99407.97;;;-3.06;90.17
86330;BME280;76985;51.042;13.978;2024-03-08T06:50:23;99405.88;;;-2.91;89.71
86330;BME280;76985;51.042;13.978;2024-03-08T06:52:49;99400.66;;;-2.80;88.00
86330;BME280;76985;51.042;13.978;2024-03-08T06:55:20;99376.03;;;-2.84;87.47
86330;BME280;76985;51.042;13.978;2024-03-08T06:57:46;99416.31;;;-2.51;88.34
86330;BME280;76985;51.042;13.978;2024-03-08T07:00:12;99397.75;;;-2.44;89.23
86330;BME280;76985;51.042;13.978;2024-03-08T07:02:44;99421.13;;;-2.15;88.56
86330;BME280;76985;51.042;13.978;2024-03-08T07:07:54;99429.16;;;-1.78;89.18
86330;BME280;76985;51.042;13.978;2024-03-08T07:10:21;99324.25;;;-2.21;89.08
86330;BME280;76985;51.042;13.978;2024-03-08T07:12:51;99413.00;;;-1.41;89.67
86330;BME280;76985;51.042;13.978;2024-03-08T07:15:17;99405.25;;;-1.32;88.82
86330;BME280;76985;51.042;13.978;2024-03-08T07:17:45;99413.44;;;-1.07;88.75
86330;BME280;76985;51.042;13.978;2024-03-08T07:20:13;99427.59;;;-0.82;87.94
86330;BME280;76985;51.042;13.978;2024-03-08T07:22:41;99406.47;;;-0.78;86.51
86330;BME280;76985;51.042;13.978;2024-03-08T07:27:46;99366.59;;;-0.57;86.20
86330;BME280;76985;51.042;13.978;2024-03-08T07:30:12;99408.31;;;-0.13;84.53
86330;BME280;76985;51.042;13.978;2024-03-08T07:32:38;99413.69;;;0.13;84.32
86330;BME280;76985;51.042;13.978;2024-03-08T07:35:04;99415.41;;;0.22;83.86
86330;BME280;76985;51.042;13.978;2024-03-08T07:37:30;99369.69;;;0.21;82.62
86330;BME280;76985;51.042;13.978;2024-03-08T07:39:57;99403.06;;;0.69;82.09
86330;BME280;76985;51.042;13.978;2024-03-08T07:42:24;99403.28;;;0.94;81.39
86330;BME280;76985;51.042;13.978;2024-03-08T07:44:50;99359.75;;;0.88;80.36
86330;BME280;76985;51.042;13.978;2024-03-08T07:48:05;99341.53;;;1.32;79.41
86330;BME280;76985;51.042;13.978;2024-03-08T07:50:39;99366.66;;;1.83;76.97
86330;BME280;76985;51.042;13.978;2024-03-08T07:53:06;99394.88;;;2.55;75.75
86330;BME280;76985;51.042;13.978;2024-03-08T07:55:34;99397.19;;;2.90;75.69
86330;BME280;76985;51.042;13.978;2024-03-08T07:58:01;99367.38;;;3.17;71.66
86330;BME280;76985;51.042;13.978;2024-03-08T08:00:31;99372.63;;;3.73;72.47
86330;BME280;76985;51.042;13.978;2024-03-08T08:02:57;99390.41;;;4.17;69.64
86330;BME280;76985;51.042;13.978;2024-03-08T08:05:23;99373.50;;;4.59;66.97
86330;BME280;76985;51.042;13.978;2024-03-08T08:08:19;99380.66;;;4.88;67.28
86330;BME280;76985;51.042;13.978;2024-03-08T08:10:45;99382.84;;;5.37;68.31
86330;BME280;76985;51.042;13.978;2024-03-08T08:13:12;99379.38;;;5.74;65.33
86330;BME280;76985;51.042;13.978;2024-03-08T08:15:38;99357.56;;;6.33;63.71
86330;BME280;76985;51.042;13.978;2024-03-08T08:18:05;99363.69;;;6.83;61.30
86330;BME280;76985;51.042;13.978;2024-03-08T08:20:31;99361.09;;;7.11;60.36
86330;BME280;76985;51.042;13.978;2024-03-08T08:22:57;99361.81;;;7.54;59.64
86330;BME280;76985;51.042;13.978;2024-03-08T08:25:25;99373.13;;;7.96;59.56
86330;BME280;76985;51.042;13.978;2024-03-08T08:28:33;99340.81;;;8.43;57.55
86330;BME280;76985;51.042;13.978;2024-03-08T08:30:59;99348.34;;;8.73;54.93
86330;BME280;76985;51.042;13.978;2024-03-08T08:33:25;99358.06;;;8.92;53.65
86330;BME280;76985;51.042;13.978;2024-03-08T08:35:51;99345.50;;;8.68;54.35
86330;BME280;76985;51.042;13.978;2024-03-08T08:38:20;99356.66;;;8.09;52.32
86330;BME280;76985;51.042;13.978;2024-03-08T08:40:46;99327.53;;;8.17;52.88
86330;BME280;76985;51.042;13.978;2024-03-08T08:43:13;99351.38;;;8.83;51.99
86330;BME280;76985;51.042;13.978;2024-03-08T08:48:17;99339.66;;;8.05;54.48
86330;BME280;76985;51.042;13.978;2024-03-08T08:50:43;99345.69;;;8.60;52.87
86330;BME280;76985;51.042;13.978;2024-03-08T08:53:10;99329.09;;;8.53;54.06
86330;BME280;76985;51.042;13.978;2024-03-08T08:55:36;99341.59;;;8.44;52.41
86330;BME280;76985;51.042;13.978;2024-03-08T08:58:03;99325.50;;;8.12;55.86
86330;BME280;76985;51.042;13.978;2024-03-08T09:00:29;99333.50;;;7.43;57.30
86330;BME280;76985;51.042;13.978;2024-03-08T09:02:56;99288.22;;;7.41;54.70
86330;BME280;76985;51.042;13.978;2024-03-08T09:05:24;99310.19;;;7.33;55.01
86330;BME280;76985;51.042;13.978;2024-03-08T09:08:31;99261.66;;;8.25;54.94
86330;BME280;76985;51.042;13.978;2024-03-08T09:10:57;99338.22;;;9.10;52.64
86330;BME280;76985;51.042;13.978;2024-03-08T09:13:25;99325.06;;;8.90;51.47
86330;BME280;76985;51.042;13.978;2024-03-08T09:15:51;99310.69;;;9.06;52.60
86330;BME280;76985;51.042;13.978;2024-03-08T09:18:18;99318.16;;;9.35;52.16
86330;BME280;76985;51.042;13.978;2024-03-08T09:20:45;99305.00;;;9.15;49.90
86330;BME280;76985;51.042;13.978;2024-03-08T09:23:11;99285.78;;;8.49;50.31
86330;BME280;76985;51.042;13.978;2024-03-08T09:25:37;99322.88;;;9.78;47.73
86330;BME280;76985;51.042;13.978;2024-03-08T09:28:33;99298.88;;;10.44;47.17
86330;BME280;76985;51.042;13.978;2024-03-08T09:31:00;99296.28;;;10.00;47.20
86330;BME280;76985;51.042;13.978;2024-03-08T09:33:27;99278.59;;;9.55;48.69
86330;BME280;76985;51.042;13.978;2024-03-08T09:35:54;99260.88;;;9.17;49.45
86330;BME280;76985;51.042;13.978;2024-03-08T09:38:20;99293.28;;;8.91;47.96
86330;BME280;76985;51.042;13.978;2024-03-08T09:40:46;99307.88;;;9.01;50.58
86330;BME280;76985;51.042;13.978;2024-03-08T09:43:13;99280.91;;;9.25;48.79
86330;BME280;76985;51.042;13.978;2024-03-08T09:45:40;99289.22;;;9.22;48.63
86330;BME280;76985;51.042;13.978;2024-03-08T09:48:46;99261.53;;;9.71;49.00
86330;BME280;76985;51.042;13.978;2024-03-08T09:51:13;99282.75;;;9.18;48.64
86330;BME280;76985;51.042;13.978;2024-03-08T09:53:44;99299.41;;;9.77;50.31
86330;BME280;76985;51.042;13.978;2024-03-08T09:56:12;99258.28;;;9.76;46.98
86330;BME280;76985;51.042;13.978;2024-03-08T09:58:38;99259.91;;;9.70;49.49
86330;BME280;76985;51.042;13.978;2024-03-08T10:01:20;99223.97;;;9.37;48.79
86330;BME280;76985;51.042;13.978;2024-03-08T10:03:47;99279.41;;;9.56;49.34
86330;BME280;76985;51.042;13.978;2024-03-08T10:08:54;99274.31;;;9.61;53.91
86330;BME280;76985;51.042;13.978;2024-03-08T10:11:21;99264.28;;;9.25;52.33
86330;BME280;76985;51.042;13.978;2024-03-08T10:13:48;99275.63;;;10.28;48.31
86330;BME280;76985;51.042;13.978;2024-03-08T10:16:14;99223.38;;;9.80;47.28
86330;BME280;76985;51.042;13.978;2024-03-08T10:18:42;99252.44;;;10.05;48.47
86330;BME280;76985;51.042;13.978;2024-03-08T10:21:09;99236.03;;;10.41;45.72
86330;BME280;76985;51.042;13.978;2024-03-08T10:23:41;99252.16;;;11.20;45.95
86330;BME280;76985;51.042;13.978;2024-03-08T10:26:13;99263.06;;;11.24;46.19
86330;BME280;76985;51.042;13.978;2024-03-08T10:28:54;99266.31;;;11.26;47.97
86330;BME280;76985;51.042;13.978;2024-03-08T10:31:20;99251.09;;;11.76;46.16
86330;BME280;76985;51.042;13.978;2024-03-08T10:33:47;99271.19;;;12.14;44.11
86330;BME280;76985;51.042;13.978;2024-03-08T10:36:14;99267.53;;;13.39;41.05
86330;BME280;76985;51.042;13.978;2024-03-08T10:38:42;99248.75;;;12.93;42.80
86330;BME280;76985;51.042;13.978;2024-03-08T10:41:13;99267.63;;;13.56;40.99
86330;BME280;76985;51.042;13.978;2024-03-08T10:48:45;99231.47;;;14.07;40.55
86330;BME280;76985;51.042;13.978;2024-03-08T10:51:15;99258.59;;;14.26;40.70
86330;BME280;76985;51.042;13.978;2024-03-08T10:53:42;99219.34;;;14.11;37.70
86330;BME280;76985;51.042;13.978;2024-03-08T10:56:09;99236.97;;;14.17;37.93
86330;BME280;76985;51.042;13.978;2024-03-08T10:58:36;99256.78;;;13.69;40.03
86330;BME280;76985;51.042;13.978;2024-03-08T11:01:03;99225.44;;;14.57;39.98
86330;BME280;76985;51.042;13.978;2024-03-08T11:04:05;99245.88;;;13.42;43.32
86330;BME280;76985;51.042;13.978;2024-03-08T11:08:46;99242.88;;;13.50;40.32
86330;BME280;76985;51.042;13.978;2024-03-08T11:11:32;99233.97;;;12.39;41.77
86330;BME280;76985;51.042;13.978;2024-03-08T11:14:02;99188.53;;;13.12;43.09
86330;BME280;76985;51.042;13.978;2024-03-08T11:16:48;99222.91;;;14.33;40.80
86330;BME280;76985;51.042;13.978;2024-03-08T11:19:35;99214.22;;;14.21;40.65
86330;BME280;76985;51.042;13.978;2024-03-08T11:22:02;99183.47;;;13.63;40.75
86330;BME280;76985;51.042;13.978;2024-03-08T11:24:39;99211.69;;;14.60;37.92
86330;BME280;76985;51.042;13.978;2024-03-08T11:28:50;99187.84;;;13.69;41.73
86330;BME280;76985;51.042;13.978;2024-03-08T11:31:23;99196.09;;;14.18;38.55
86330;BME280;76985;51.042;13.978;2024-03-08T11:33:50;99195.22;;;13.27;39.52
86330;BME280;76985;51.042;13.978;2024-03-08T11:36:23;99181.16;;;14.12;40.25
86330;BME280;76985;51.042;13.978;2024-03-08T11:38:51;99176.44;;;13.28;43.09
86330;BME280;76985;51.042;13.978;2024-03-08T11:41:19;99190.25;;;14.16;38.63
86330;BME280;76985;51.042;13.978;2024-03-08T11:43:47;99162.13;;;13.41;39.15
86330;BME280;76985;51.042;13.978;2024-03-08T11:46:15;99178.44;;;14.24;37.30
86330;BME280;76985;51.042;13.978;2024-03-08T11:49:19;99139.41;;;13.74;39.19
86330;BME280;76985;51.042;13.978;2024-03-08T11:51:45;99177.97;;;14.27;39.83
86330;BME280;76985;51.042;13.978;2024-03-08T11:54:12;99177.13;;;13.35;42.44
86330;BME280;76985;51.042;13.978;2024-03-08T11:56:41;99171.56;;;12.61;44.20
86330;BME280;76985;51.042;13.978;2024-03-08T11:59:12;99140.50;;;13.09;42.13
86330;BME280;76985;51.042;13.978;2024-03-08T12:01:39;99138.31;;;14.20;39.84
86330;BME280;76985;51.042;13.978;2024-03-08T12:04:06;99138.22;;;14.65;37.44
86330;BME280;76985;51.042;13.978;2024-03-08T12:06:39;99154.19;;;15.09;38.62
86330;BME280;76985;51.042;13.978;2024-03-08T12:10:19;99143.94;;;14.07;38.15
86330;BME280;76985;51.042;13.978;2024-03-08T12:12:51;99142.00;;;13.28;40.94
86330;BME280;76985;51.042;13.978;2024-03-08T12:15:19;99119.84;;;13.63;40.37
86330;BME280;76985;51.042;13.978;2024-03-08T12:17:48;99105.25;;;13.20;39.91
86330;BME280;76985;51.042;13.978;2024-03-08T12:20:18;99141.88;;;12.36;41.28
86330;BME280;76985;51.042;13.978;2024-03-08T12:22:48;99115.94;;;12.14;43.28
86330;BME280;76985;51.042;13.978;2024-03-08T12:25:15;99125.94;;;12.83;42.39
86330;BME280;76985;51.042;13.978;2024-03-08T12:30:45;99136.44;;;13.18;41.92
86330;BME280;76985;51.042;13.978;2024-03-08T12:33:13;99106.44;;;12.37;43.16
86330;BME280;76985;51.042;13.978;2024-03-08T12:35:39;99119.50;;;11.66;47.08
86330;BME280;76985;51.042;13.978;2024-03-08T12:38:06;99114.63;;;11.52;45.34
86330;BME280;76985;51.042;13.978;2024-03-08T12:40:34;99112.34;;;11.07;45.42
86330;BME280;76985;51.042;13.978;2024-03-08T12:43:01;99121.31;;;11.24;47.72
86330;BME280;76985;51.042;13.978;2024-03-08T12:45:32;99091.03;;;10.90;46.85
86330;BME280;76985;51.042;13.978;2024-03-08T12:50:11;99066.06;;;10.74;48.01
86330;BME280;76985;51.042;13.978;2024-03-08T12:52:37;99081.00;;;10.80;46.84
86330;BME280;76985;51.042;13.978;2024-03-08T12:55:04;99095.06;;;10.92;48.43
86330;BME280;76985;51.042;13.978;2024-03-08T12:57:34;99104.28;;;10.47;50.74
86330;BME280;76985;51.042;13.978;2024-03-08T13:00:01;99071.91;;;10.39;48.58
86330;BME280;76985;51.042;13.978;2024-03-08T13:02:28;99088.59;;;10.33;49.04
86330;BME280;76985;51.042;13.978;2024-03-08T13:04:57;99047.94;;;10.16;50.67
86330;BME280;76985;51.042;13.978;2024-03-08T13:07:24;99075.63;;;10.32;47.78
86330;BME280;76985;51.042;13.978;2024-03-08T13:10:25;99071.31;;;10.56;49.89
86330;BME280;76985;51.042;13.978;2024-03-08T13:12:51;99077.41;;;10.38;48.22
86330;BME280;76985;51.042;13.978;2024-03-08T13:15:19;99052.78;;;10.26;47.88
86330;BME280;76985;51.042;13.978;2024-03-08T13:17:48;99044.44;;;10.29;49.73
86330;BME280;76985;51.042;13.978;2024-03-08T13:20:14;99070.28;;;10.38;48.76
86330;BME280;76985;51.042;13.978;2024-03-08T13:22:48;99045.25;;;10.48;50.27
86330;BME280;76985;51.042;13.978;2024-03-08T13:25:14;99062.81;;;10.72;48.27
86330;BME280;76985;51.042;13.978;2024-03-08T13:30:19;99055.84;;;10.78;48.07
86330;BME280;76985;51.042;13.978;2024-03-08T13:32:54;99019.44;;;10.68;46.94
86330;BME280;76985;51.042;13.978;2024-03-08T13:35:21;99044.53;;;11.07;47.09
86330;BME280;76985;51.042;13.978;2024-03-08T13:37:55;99021.00;;;11.06;48.46
86330;BME280;76985;51.042;13.978;2024-03-08T13:40:22;99000.72;;;10.88;49.09
86330;BME280;76985;51.042;13.978;2024-03-08T13:42:48;99020.09;;;11.12;47.00
86330;BME280;76985;51.042;13.978;2024-03-08T13:45:15;98999.72;;;11.31;46.38
86330;BME280;76985;51.042;13.978;2024-03-08T13:50:22;99041.44;;;12.06;46.01
86330;BME280;76985;51.042;13.978;2024-03-08T13:52:49;99009.34;;;11.25;47.17
86330;BME280;76985;51.042;13.978;2024-03-08T13:55:18;99041.22;;;12.07;45.93
86330;BME280;76985;51.042;13.978;2024-03-08T13:57:44;99038.19;;;12.39;45.43